Eden, Wisconsin
Current Conditions -  °F | °C
As of 3:53 AM on Sunday 26 Oct 2014 (Local Time) from KFLD Reporting Station
Clear Clear  
Wind Chill: 38°   Ceiling: Unl
Heat Index: 43°   Visibility: 10mi
Dew Point: 27°   Wind: 8mph
Humidity: 53%   Direction: 290°WNW
Pressure: 29.98"   Gusts: NA
Location:  43.69°N, 88.36°W
Report Text: KFLD 260853Z AUTO 29007KT 10SM CLR 06/M03 A2998 RMK AO2 SLP154 T00611028 51007
Loading
Personal Weather Stations






























Interactive Weather Map
Tropical Storm Tracking
New forecast layout! Learn more

10-Day Weather Forecast

Advertisements
Track Severe Weather on mobile